sensor_id;sensor_type;location;lat;lon;timestamp;temperature;humidity
55642;DHT22;41509;53.108;6.100;2023-07-20T00:01:25;15.50;99.90
55642;DHT22;41509;53.108;6.100;2023-07-20T00:03:51;15.50;99.90
55642;DHT22;41509;53.108;6.100;2023-07-20T00:06:24;15.50;99.90
55642;DHT22;41509;53.108;6.100;2023-07-20T00:08:59;15.40;99.90
55642;DHT22;41509;53.108;6.100;2023-07-20T00:11:27;15.40;99.90
55642;DHT22;41509;53.108;6.100;2023-07-20T00:13:53;15.30;99.90
55642;DHT22;41509;53.108;6.100;2023-07-20T00:16:18;15.30;99.90
55642;DHT22;41509;53.108;6.100;2023-07-20T00:18:44;15.20;99.90
55642;DHT22;41509;53.108;6.100;2023-07-20T00:21:10;15.20;99.90
55642;DHT22;41509;53.108;6.100;2023-07-20T00:23:36;15.10;99.90
55642;DHT22;41509;53.108;6.100;2023-07-20T00:26:01;15.10;99.90
55642;DHT22;41509;53.108;6.100;2023-07-20T00:28:27;15.00;99.90
55642;DHT22;41509;53.108;6.100;2023-07-20T00:30:53;15.00;99.90
55642;DHT22;41509;53.108;6.100;2023-07-20T00:33:19;15.00;99.90
55642;DHT22;41509;53.108;6.100;2023-07-20T00:35:45;14.90;99.90
55642;DHT22;41509;53.108;6.100;2023-07-20T00:38:11;14.90;99.90
55642;DHT22;41509;53.108;6.100;2023-07-20T00:40:41;14.90;99.90
55642;DHT22;41509;53.108;6.100;2023-07-20T00:43:07;14.90;99.90
55642;DHT22;41509;53.108;6.100;2023-07-20T00:45:34;14.90;99.90
55642;DHT22;41509;53.108;6.100;2023-07-20T00:48:02;14.80;99.90
55642;DHT22;41509;53.108;6.100;2023-07-20T00:50:30;14.80;99.90
55642;DHT22;41509;53.108;6.100;2023-07-20T00:52:56;14.80;99.90
55642;DHT22;41509;53.108;6.100;2023-07-20T00:55:24;14.80;99.90
55642;DHT22;41509;53.108;6.100;2023-07-20T00:57:50;14.70;99.90
55642;DHT22;41509;53.108;6.100;2023-07-20T01:00:16;14.70;99.90
55642;DHT22;41509;53.108;6.100;2023-07-20T01:02:43;14.70;99.90
55642;DHT22;41509;53.108;6.100;2023-07-20T01:05:09;14.70;99.90
55642;DHT22;41509;53.108;6.100;2023-07-20T01:07:38;14.60;99.90
55642;DHT22;41509;53.108;6.100;2023-07-20T01:10:39;14.70;99.90
55642;DHT22;41509;53.108;6.100;2023-07-20T01:13:07;14.60;99.90
55642;DHT22;41509;53.108;6.100;2023-07-20T01:15:35;14.60;99.90
55642;DHT22;41509;53.108;6.100;2023-07-20T01:18:00;14.60;99.90
55642;DHT22;41509;53.108;6.100;2023-07-20T01:20:32;14.60;99.90
55642;DHT22;41509;53.108;6.100;2023-07-20T01:31:34;14.50;99.90
55642;DHT22;41509;53.108;6.100;2023-07-20T01:34:02;14.50;99.90
55642;DHT22;41509;53.108;6.100;2023-07-20T01:36:30;14.50;99.90
55642;DHT22;41509;53.108;6.100;2023-07-20T01:38:59;14.50;99.90
55642;DHT22;41509;53.108;6.100;2023-07-20T01:41:25;14.50;99.90
55642;DHT22;41509;53.108;6.100;2023-07-20T01:43:50;14.40;99.90
55642;DHT22;41509;53.108;6.100;2023-07-20T01:46:16;14.40;99.90
55642;DHT22;41509;53.108;6.100;2023-07-20T01:48:42;14.40;99.90
55642;DHT22;41509;53.108;6.100;2023-07-20T01:51:08;14.40;99.90
55642;DHT22;41509;53.108;6.100;2023-07-20T01:53:34;14.40;99.90
55642;DHT22;41509;53.108;6.100;2023-07-20T01:55:59;14.40;99.90
55642;DHT22;41509;53.108;6.100;2023-07-20T01:58:25;14.30;99.90
55642;DHT22;41509;53.108;6.100;2023-07-20T02:00:51;14.30;99.90
55642;DHT22;41509;53.108;6.100;2023-07-20T02:03:17;14.30;99.90
55642;DHT22;41509;53.108;6.100;2023-07-20T02:05:43;14.30;99.90
55642;DHT22;41509;53.108;6.100;2023-07-20T02:08:09;14.30;99.90
55642;DHT22;41509;53.108;6.100;2023-07-20T02:10:35;14.20;99.90
55642;DHT22;41509;53.108;6.100;2023-07-20T02:13:01;14.20;99.90
55642;DHT22;41509;53.108;6.100;2023-07-20T02:15:27;14.20;99.90
55642;DHT22;41509;53.108;6.100;2023-07-20T02:17:53;14.20;99.90
55642;DHT22;41509;53.108;6.100;2023-07-20T02:20:19;14.10;99.90
55642;DHT22;41509;53.108;6.100;2023-07-20T02:22:45;14.10;99.90
55642;DHT22;41509;53.108;6.100;2023-07-20T02:25:11;14.10;99.90
55642;DHT22;41509;53.108;6.100;2023-07-20T02:27:37;14.10;99.90
55642;DHT22;41509;53.108;6.100;2023-07-20T02:30:04;14.10;99.90
55642;DHT22;41509;53.108;6.100;2023-07-20T02:32:30;14.00;99.90
55642;DHT22;41509;53.108;6.100;2023-07-20T02:34:57;14.00;99.90
55642;DHT22;41509;53.108;6.100;2023-07-20T02:37:23;13.90;99.90
55642;DHT22;41509;53.108;6.100;2023-07-20T02:39:49;13.90;99.90
55642;DHT22;41509;53.108;6.100;2023-07-20T02:42:14;13.90;99.90
55642;DHT22;41509;53.108;6.100;2023-07-20T02:44:40;13.90;99.90
55642;DHT22;41509;53.108;6.100;2023-07-20T02:47:06;13.90;99.90
55642;DHT22;41509;53.108;6.100;2023-07-20T02:49:32;13.90;99.90
55642;DHT22;41509;53.108;6.100;2023-07-20T02:51:58;13.90;99.90
55642;DHT22;41509;53.108;6.100;2023-07-20T02:54:23;13.80;99.90
55642;DHT22;41509;53.108;6.100;2023-07-20T02:56:49;13.80;99.90
55642;DHT22;41509;53.108;6.100;2023-07-20T02:59:15;13.80;99.90
55642;DHT22;41509;53.108;6.100;2023-07-20T03:01:41;13.80;99.90
55642;DHT22;41509;53.108;6.100;2023-07-20T03:04:08;13.80;99.90
55642;DHT22;41509;53.108;6.100;2023-07-20T03:06:36;13.80;99.90
55642;DHT22;41509;53.108;6.100;2023-07-20T03:09:02;13.80;99.90
55642;DHT22;41509;53.108;6.100;2023-07-20T03:11:29;13.80;99.90
55642;DHT22;41509;53.108;6.100;2023-07-20T03:13:55;13.80;99.90
55642;DHT22;41509;53.108;6.100;2023-07-20T03:16:23;13.80;99.90
55642;DHT22;41509;53.108;6.100;2023-07-20T03:18:50;13.80;99.90
55642;DHT22;41509;53.108;6.100;2023-07-20T03:21:16;13.80;99.90
55642;DHT22;41509;53.108;6.100;2023-07-20T03:23:42;13.80;99.90
55642;DHT22;41509;53.108;6.100;2023-07-20T03:26:08;13.80;99.90
55642;DHT22;41509;53.108;6.100;2023-07-20T03:28:38;13.80;99.90
55642;DHT22;41509;53.108;6.100;2023-07-20T03:31:04;13.70;99.90
55642;DHT22;41509;53.108;6.100;2023-07-20T03:33:30;13.80;99.90
55642;DHT22;41509;53.108;6.100;2023-07-20T03:35:57;13.80;99.90
55642;DHT22;41509;53.108;6.100;2023-07-20T03:38:25;13.80;99.90
55642;DHT22;41509;53.108;6.100;2023-07-20T03:43:17;13.80;99.90
55642;DHT22;41509;53.108;6.100;2023-07-20T03:45:43;13.80;99.90
55642;DHT22;41509;53.108;6.100;2023-07-20T03:48:11;13.80;99.90
55642;DHT22;41509;53.108;6.100;2023-07-20T03:50:37;13.80;99.90
55642;DHT22;41509;53.108;6.100;2023-07-20T03:53:03;13.80;99.90
55642;DHT22;41509;53.108;6.100;2023-07-20T03:55:29;13.70;99.90
55642;DHT22;41509;53.108;6.100;2023-07-20T03:57:54;13.70;99.90
55642;DHT22;41509;53.108;6.100;2023-07-20T04:00:20;13.70;99.90
55642;DHT22;41509;53.108;6.100;2023-07-20T04:02:46;13.70;99.90
55642;DHT22;41509;53.108;6.100;2023-07-20T04:05:12;13.70;99.90
55642;DHT22;41509;53.108;6.100;2023-07-20T04:07:38;13.70;99.90
55642;DHT22;41509;53.108;6.100;2023-07-20T04:10:04;13.70;99.90
55642;DHT22;41509;53.108;6.100;2023-07-20T04:12:29;13.60;99.90
55642;DHT22;41509;53.108;6.100;2023-07-20T04:14:55;13.70;99.90
55642;DHT22;41509;53.108;6.100;2023-07-20T04:17:21;13.70;99.90
55642;DHT22;41509;53.108;6.100;2023-07-20T04:19:47;13.70;99.90
55642;DHT22;41509;53.108;6.100;2023-07-20T04:22:13;13.70;99.90
55642;DHT22;41509;53.108;6.100;2023-07-20T04:24:42;13.60;99.90
55642;DHT22;41509;53.108;6.100;2023-07-20T04:27:08;13.70;99.90
55642;DHT22;41509;53.108;6.100;2023-07-20T04:29:34;13.70;99.90
55642;DHT22;41509;53.108;6.100;2023-07-20T04:32:00;13.80;99.90
55642;DHT22;41509;53.108;6.100;2023-07-20T04:34:25;13.70;99.90
55642;DHT22;41509;53.108;6.100;2023-07-20T04:36:51;13.70;99.90
55642;DHT22;41509;53.108;6.100;2023-07-20T04:39:17;13.80;99.90
55642;DHT22;41509;53.108;6.100;2023-07-20T04:41:43;13.80;99.90
55642;DHT22;41509;53.108;6.100;2023-07-20T04:44:08;13.80;99.90
55642;DHT22;41509;53.108;6.100;2023-07-20T04:46:34;13.80;99.90
55642;DHT22;41509;53.108;6.100;2023-07-20T04:49:00;13.80;99.90
55642;DHT22;41509;53.108;6.100;2023-07-20T04:51:27;13.80;99.90
55642;DHT22;41509;53.108;6.100;2023-07-20T04:53:52;13.90;99.90
55642;DHT22;41509;53.108;6.100;2023-07-20T04:56:18;13.90;99.90
55642;DHT22;41509;53.108;6.100;2023-07-20T04:58:44;13.90;99.90
55642;DHT22;41509;53.108;6.100;2023-07-20T05:01:10;14.00;99.90
55642;DHT22;41509;53.108;6.100;2023-07-20T05:03:36;13.90;99.90
55642;DHT22;41509;53.108;6.100;2023-07-20T05:06:02;14.00;99.90
55642;DHT22;41509;53.108;6.100;2023-07-20T05:08:27;14.00;99.90
55642;DHT22;41509;53.108;6.100;2023-07-20T05:10:53;14.10;99.90
55642;DHT22;41509;53.108;6.100;2023-07-20T05:13:19;14.10;99.90
55642;DHT22;41509;53.108;6.100;2023-07-20T05:15:45;14.20;99.90
55642;DHT22;41509;53.108;6.100;2023-07-20T05:18:10;14.20;99.90
55642;DHT22;41509;53.108;6.100;2023-07-20T05:20:36;14.30;99.90
55642;DHT22;41509;53.108;6.100;2023-07-20T05:23:02;14.30;99.90
55642;DHT22;41509;53.108;6.100;2023-07-20T05:25:28;14.30;99.90
55642;DHT22;41509;53.108;6.100;2023-07-20T05:27:54;14.40;99.90
55642;DHT22;41509;53.108;6.100;2023-07-20T05:30:21;14.40;99.90
55642;DHT22;41509;53.108;6.100;2023-07-20T05:32:46;14.50;99.90
55642;DHT22;41509;53.108;6.100;2023-07-20T05:35:17;14.60;99.90
55642;DHT22;41509;53.108;6.100;2023-07-20T05:37:44;14.60;99.90
55642;DHT22;41509;53.108;6.100;2023-07-20T05:40:10;14.70;99.90
55642;DHT22;41509;53.108;6.100;2023-07-20T05:42:38;14.70;99.90
55642;DHT22;41509;53.108;6.100;2023-07-20T05:45:04;14.80;99.90
55642;DHT22;41509;53.108;6.100;2023-07-20T05:47:30;14.90;99.90
55642;DHT22;41509;53.108;6.100;2023-07-20T05:49:56;14.90;99.90
55642;DHT22;41509;53.108;6.100;2023-07-20T05:52:22;15.00;99.90
55642;DHT22;41509;53.108;6.100;2023-07-20T05:54:47;15.00;99.90
55642;DHT22;41509;53.108;6.100;2023-07-20T05:57:16;15.00;99.90
55642;DHT22;41509;53.108;6.100;2023-07-20T05:59:42;15.10;99.90
55642;DHT22;41509;53.108;6.100;2023-07-20T06:02:10;15.10;99.90
55642;DHT22;41509;53.108;6.100;2023-07-20T06:04:36;15.10;99.90
55642;DHT22;41509;53.108;6.100;2023-07-20T06:07:02;15.20;99.90
55642;DHT22;41509;53.108;6.100;2023-07-20T06:09:28;15.20;99.90
55642;DHT22;41509;53.108;6.100;2023-07-20T06:11:54;15.20;99.90
55642;DHT22;41509;53.108;6.100;2023-07-20T06:14:20;15.30;99.90
55642;DHT22;41509;53.108;6.100;2023-07-20T06:16:46;15.30;99.90
55642;DHT22;41509;53.108;6.100;2023-07-20T06:19:12;15.30;99.90
55642;DHT22;41509;53.108;6.100;2023-07-20T06:21:38;15.40;99.90
55642;DHT22;41509;53.108;6.100;2023-07-20T06:24:04;15.40;99.90
55642;DHT22;41509;53.108;6.100;2023-07-20T06:26:31;15.40;99.90
55642;DHT22;41509;53.108;6.100;2023-07-20T06:28:58;15.50;99.90
55642;DHT22;41509;53.108;6.100;2023-07-20T06:31:23;15.50;99.90
55642;DHT22;41509;53.108;6.100;2023-07-20T06:33:49;15.60;99.90
55642;DHT22;41509;53.108;6.100;2023-07-20T06:36:17;15.60;99.90
55642;DHT22;41509;53.108;6.100;2023-07-20T06:38:43;15.60;99.90
55642;DHT22;41509;53.108;6.100;2023-07-20T06:41:09;15.70;99.90
55642;DHT22;41509;53.108;6.100;2023-07-20T06:43:34;15.70;99.90
55642;DHT22;41509;53.108;6.100;2023-07-20T06:46:00;15.80;99.90
55642;DHT22;41509;53.108;6.100;2023-07-20T06:48:26;15.80;99.90
55642;DHT22;41509;53.108;6.100;2023-07-20T06:50:52;15.90;99.90
55642;DHT22;41509;53.108;6.100;2023-07-20T06:53:19;15.90;99.90
55642;DHT22;41509;53.108;6.100;2023-07-20T06:55:44;16.00;99.90
55642;DHT22;41509;53.108;6.100;2023-07-20T06:58:11;16.00;99.90
55642;DHT22;41509;53.108;6.100;2023-07-20T07:00:37;16.00;99.90
55642;DHT22;41509;53.108;6.100;2023-07-20T07:03:03;16.10;99.90
55642;DHT22;41509;53.108;6.100;2023-07-20T07:05:29;16.10;99.90
55642;DHT22;41509;53.108;6.100;2023-07-20T07:07:54;16.10;99.90
55642;DHT22;41509;53.108;6.100;2023-07-20T07:10:20;16.20;99.90
55642;DHT22;41509;53.108;6.100;2023-07-20T07:12:46;16.20;99.90
55642;DHT22;41509;53.108;6.100;2023-07-20T07:15:11;16.30;99.90
55642;DHT22;41509;53.108;6.100;2023-07-20T07:17:37;16.30;99.90
55642;DHT22;41509;53.108;6.100;2023-07-20T07:20:04;16.30;99.90
55642;DHT22;41509;53.108;6.100;2023-07-20T07:22:30;16.40;99.90
55642;DHT22;41509;53.108;6.100;2023-07-20T07:24:56;16.50;99.90
55642;DHT22;41509;53.108;6.100;2023-07-20T07:27:22;16.50;99.90
55642;DHT22;41509;53.108;6.100;2023-07-20T07:29:48;16.60;99.90
55642;DHT22;41509;53.108;6.100;2023-07-20T07:32:15;16.70;99.90
55642;DHT22;41509;53.108;6.100;2023-07-20T07:34:40;16.70;99.90
55642;DHT22;41509;53.108;6.100;2023-07-20T07:37:06;16.70;99.90
55642;DHT22;41509;53.108;6.100;2023-07-20T07:39:32;16.80;99.90
55642;DHT22;41509;53.108;6.100;2023-07-20T07:41:57;16.80;99.90
55642;DHT22;41509;53.108;6.100;2023-07-20T07:44:23;16.70;99.90
55642;DHT22;41509;53.108;6.100;2023-07-20T07:46:50;16.70;99.90
55642;DHT22;41509;53.108;6.100;2023-07-20T07:49:16;16.60;99.90
55642;DHT22;41509;53.108;6.100;2023-07-20T07:51:42;16.60;99.90
55642;DHT22;41509;53.108;6.100;2023-07-20T07:54:08;16.60;99.90
55642;DHT22;41509;53.108;6.100;2023-07-20T07:56:33;16.70;99.90
55642;DHT22;41509;53.108;6.100;2023-07-20T07:58:59;16.70;99.90
55642;DHT22;41509;53.108;6.100;2023-07-20T08:01:25;16.70;99.90
55642;DHT22;41509;53.108;6.100;2023-07-20T08:03:51;16.80;99.90
55642;DHT22;41509;53.108;6.100;2023-07-20T08:06:16;16.90;99.90
55642;DHT22;41509;53.108;6.100;2023-07-20T08:08:42;17.00;99.90
55642;DHT22;41509;53.108;6.100;2023-07-20T08:11:08;17.00;99.90
55642;DHT22;41509;53.108;6.100;2023-07-20T08:13:34;17.00;99.90
55642;DHT22;41509;53.108;6.100;2023-07-20T08:16:00;17.00;99.90
55642;DHT22;41509;53.108;6.100;2023-07-20T08:18:28;17.00;99.90
55642;DHT22;41509;53.108;6.100;2023-07-20T08:20:54;17.00;99.90
55642;DHT22;41509;53.108;6.100;2023-07-20T08:23:19;17.00;99.90
55642;DHT22;41509;53.108;6.100;2023-07-20T08:25:45;17.10;99.90
55642;DHT22;41509;53.108;6.100;2023-07-20T08:28:13;17.00;99.90
55642;DHT22;41509;53.108;6.100;2023-07-20T08:30:47;17.10;99.90
55642;DHT22;41509;53.108;6.100;2023-07-20T08:33:14;17.20;99.90
55642;DHT22;41509;53.108;6.100;2023-07-20T08:35:40;17.30;99.90
55642;DHT22;41509;53.108;6.100;2023-07-20T08:38:06;17.40;99.90
55642;DHT22;41509;53.108;6.100;2023-07-20T08:40:35;17.60;99.90
55642;DHT22;41509;53.108;6.100;2023-07-20T08:43:04;17.60;99.90
55642;DHT22;41509;53.108;6.100;2023-07-20T08:45:33;17.80;99.90
55642;DHT22;41509;53.108;6.100;2023-07-20T08:48:01;17.80;99.90
55642;DHT22;41509;53.108;6.100;2023-07-20T08:50:31;17.90;99.90
55642;DHT22;41509;53.108;6.100;2023-07-20T08:52:58;18.10;99.90
55642;DHT22;41509;53.108;6.100;2023-07-20T08:55:27;18.20;99.90
55642;DHT22;41509;53.108;6.100;2023-07-20T08:57:54;18.30;99.90
55642;DHT22;41509;53.108;6.100;2023-07-20T09:00:21;18.30;99.90
55642;DHT22;41509;53.108;6.100;2023-07-20T09:02:50;18.30;99.90
55642;DHT22;41509;53.108;6.100;2023-07-20T09:05:17;18.30;99.90
55642;DHT22;41509;53.108;6.100;2023-07-20T09:07:43;18.20;99.90
55642;DHT22;41509;53.108;6.100;2023-07-20T09:10:09;18.20;99.90
55642;DHT22;41509;53.108;6.100;2023-07-20T09:12:40;18.20;99.90
55642;DHT22;41509;53.108;6.100;2023-07-20T09:15:06;18.10;99.90
55642;DHT22;41509;53.108;6.100;2023-07-20T09:17:33;18.00;99.90
55642;DHT22;41509;53.108;6.100;2023-07-20T09:20:02;18.00;99.90
55642;DHT22;41509;53.108;6.100;2023-07-20T09:22:34;18.00;99.90
55642;DHT22;41509;53.108;6.100;2023-07-20T09:25:00;18.00;99.90
55642;DHT22;41509;53.108;6.100;2023-07-20T09:27:38;18.10;99.90
55642;DHT22;41509;53.108;6.100;2023-07-20T09:30:04;18.30;99.90
55642;DHT22;41509;53.108;6.100;2023-07-20T09:32:38;18.40;99.90
55642;DHT22;41509;53.108;6.100;2023-07-20T09:35:05;18.60;99.90
55642;DHT22;41509;53.108;6.100;2023-07-20T09:37:33;18.60;99.90
55642;DHT22;41509;53.108;6.100;2023-07-20T09:39:59;18.60;99.90
55642;DHT22;41509;53.108;6.100;2023-07-20T09:42:26;18.60;99.90
55642;DHT22;41509;53.108;6.100;2023-07-20T09:44:52;18.60;99.90
55642;DHT22;41509;53.108;6.100;2023-07-20T09:47:22;18.60;99.90
55642;DHT22;41509;53.108;6.100;2023-07-20T09:49:48;18.60;99.90
55642;DHT22;41509;53.108;6.100;2023-07-20T09:52:15;18.60;99.90
55642;DHT22;41509;53.108;6.100;2023-07-20T09:54:44;18.70;99.90
55642;DHT22;41509;53.108;6.100;2023-07-20T09:57:11;18.80;99.90
55642;DHT22;41509;53.108;6.100;2023-07-20T09:59:39;19.00;99.90
55642;DHT22;41509;53.108;6.100;2023-07-20T10:02:13;19.20;99.90
55642;DHT22;41509;53.108;6.100;2023-07-20T10:04:41;19.40;99.90
55642;DHT22;41509;53.108;6.100;2023-07-20T10:07:10;19.40;99.90
55642;DHT22;41509;53.108;6.100;2023-07-20T10:09:39;19.40;99.90
55642;DHT22;41509;53.108;6.100;2023-07-20T10:12:09;19.40;99.90
55642;DHT22;41509;53.108;6.100;2023-07-20T10:14:40;19.30;99.90
55642;DHT22;41509;53.108;6.100;2023-07-20T10:17:07;19.40;99.90
55642;DHT22;41509;53.108;6.100;2023-07-20T10:19:42;19.60;99.90
55642;DHT22;41509;53.108;6.100;2023-07-20T10:22:36;19.60;99.90
55642;DHT22;41509;53.108;6.100;2023-07-20T10:25:02;19.60;99.90
55642;DHT22;41509;53.108;6.100;2023-07-20T10:27:30;19.70;99.90
55642;DHT22;41509;53.108;6.100;2023-07-20T10:29:56;19.70;99.90
55642;DHT22;41509;53.108;6.100;2023-07-20T10:32:24;19.80;99.90
55642;DHT22;41509;53.108;6.100;2023-07-20T10:34:51;19.80;99.90
55642;DHT22;41509;53.108;6.100;2023-07-20T10:43:05;19.90;99.90
55642;DHT22;41509;53.108;6.100;2023-07-20T10:48:27;19.90;99.90
55642;DHT22;41509;53.108;6.100;2023-07-20T10:51:11;19.90;99.90
55642;DHT22;41509;53.108;6.100;2023-07-20T10:53:40;20.00;99.90
55642;DHT22;41509;53.108;6.100;2023-07-20T10:56:12;20.20;99.90
55642;DHT22;41509;53.108;6.100;2023-07-20T10:58:41;20.30;99.90
55642;DHT22;41509;53.108;6.100;2023-07-20T11:01:08;20.30;99.90
55642;DHT22;41509;53.108;6.100;2023-07-20T11:03:36;20.30;99.90
55642;DHT22;41509;53.108;6.100;2023-07-20T11:06:36;20.20;99.90
55642;DHT22;41509;53.108;6.100;2023-07-20T11:09:06;20.10;99.90
55642;DHT22;41509;53.108;6.100;2023-07-20T11:11:50;20.00;99.90
55642;DHT22;41509;53.108;6.100;2023-07-20T11:14:34;19.80;99.90
55642;DHT22;41509;53.108;6.100;2023-07-20T11:17:11;19.50;99.90
55642;DHT22;41509;53.108;6.100;2023-07-20T11:19:39;19.40;99.90
55642;DHT22;41509;53.108;6.100;2023-07-20T11:22:06;19.20;99.90
55642;DHT22;41509;53.108;6.100;2023-07-20T11:24:33;19.10;99.90
55642;DHT22;41509;53.108;6.100;2023-07-20T11:27:00;19.00;99.90
55642;DHT22;41509;53.108;6.100;2023-07-20T11:29:26;18.90;99.90
55642;DHT22;41509;53.108;6.100;2023-07-20T11:31:52;18.80;99.90
55642;DHT22;41509;53.108;6.100;2023-07-20T11:34:20;18.80;99.90
55642;DHT22;41509;53.108;6.100;2023-07-20T11:36:47;19.00;99.90
55642;DHT22;41509;53.108;6.100;2023-07-20T11:39:15;19.20;99.90
55642;DHT22;41509;53.108;6.100;2023-07-20T11:41:48;19.50;99.90
55642;DHT22;41509;53.108;6.100;2023-07-20T11:44:19;19.80;99.90
55642;DHT22;41509;53.108;6.100;2023-07-20T11:46:46;20.10;99.90
55642;DHT22;41509;53.108;6.100;2023-07-20T11:49:12;20.30;99.90
55642;DHT22;41509;53.108;6.100;2023-07-20T11:51:39;20.50;99.90
55642;DHT22;41509;53.108;6.100;2023-07-20T11:54:07;20.50;99.90
55642;DHT22;41509;53.108;6.100;2023-07-20T11:56:33;20.60;99.90
55642;DHT22;41509;53.108;6.100;2023-07-20T11:58:59;20.60;99.90
55642;DHT22;41509;53.108;6.100;2023-07-20T12:01:28;20.60;99.90
55642;DHT22;41509;53.108;6.100;2023-07-20T12:04:04;20.70;99.90
55642;DHT22;41509;53.108;6.100;2023-07-20T12:06:30;20.90;99.90
55642;DHT22;41509;53.108;6.100;2023-07-20T12:08:58;21.20;99.90
55642;DHT22;41509;53.108;6.100;2023-07-20T12:11:51;21.40;99.90
55642;DHT22;41509;53.108;6.100;2023-07-20T12:14:17;21.60;99.90
55642;DHT22;41509;53.108;6.100;2023-07-20T12:16:42;21.60;99.90
55642;DHT22;41509;53.108;6.100;2023-07-20T12:19:12;21.60;99.90
55642;DHT22;41509;53.108;6.100;2023-07-20T12:21:40;21.70;99.90
55642;DHT22;41509;53.108;6.100;2023-07-20T12:24:07;21.90;99.90
55642;DHT22;41509;53.108;6.100;2023-07-20T12:26:34;21.70;99.90
55642;DHT22;41509;53.108;6.100;2023-07-20T12:29:00;21.60;99.90
55642;DHT22;41509;53.108;6.100;2023-07-20T12:31:27;21.40;99.90
55642;DHT22;41509;53.108;6.100;2023-07-20T12:33:53;21.50;99.90
55642;DHT22;41509;53.108;6.100;2023-07-20T12:36:22;21.70;99.90
55642;DHT22;41509;53.108;6.100;2023-07-20T12:38:48;21.90;99.90
55642;DHT22;41509;53.108;6.100;2023-07-20T12:41:14;22.00;99.90
55642;DHT22;41509;53.108;6.100;2023-07-20T12:43:41;22.00;99.90
55642;DHT22;41509;53.108;6.100;2023-07-20T12:46:07;22.10;99.90
55642;DHT22;41509;53.108;6.100;2023-07-20T12:48:33;22.10;99.90
55642;DHT22;41509;53.108;6.100;2023-07-20T12:50:59;22.30;99.90
55642;DHT22;41509;53.108;6.100;2023-07-20T12:53:25;22.40;99.90
55642;DHT22;41509;53.108;6.100;2023-07-20T12:55:50;22.60;99.90
55642;DHT22;41509;53.108;6.100;2023-07-20T12:58:16;22.70;98.80
55642;DHT22;41509;53.108;6.100;2023-07-20T13:00:42;22.60;99.90
55642;DHT22;41509;53.108;6.100;2023-07-20T13:03:08;22.50;96.00
55642;DHT22;41509;53.108;6.100;2023-07-20T13:05:37;22.30;99.50
55642;DHT22;41509;53.108;6.100;2023-07-20T13:08:03;22.10;94.30
55642;DHT22;41509;53.108;6.100;2023-07-20T13:10:29;21.90;98.70
55642;DHT22;41509;53.108;6.100;2023-07-20T13:12:55;21.90;98.80
55642;DHT22;41509;53.108;6.100;2023-07-20T13:15:21;21.90;98.50
55642;DHT22;41509;53.108;6.100;2023-07-20T13:17:46;21.90;96.70
55642;DHT22;41509;53.108;6.100;2023-07-20T13:20:12;21.90;98.20
55642;DHT22;41509;53.108;6.100;2023-07-20T13:22:40;22.00;94.50
55642;DHT22;41509;53.108;6.100;2023-07-20T13:25:07;22.00;97.50
55642;DHT22;41509;53.108;6.100;2023-07-20T13:27:33;22.10;97.60
55642;DHT22;41509;53.108;6.100;2023-07-20T13:30:00;22.40;96.30
55642;DHT22;41509;53.108;6.100;2023-07-20T13:32:33;22.50;95.80
55642;DHT22;41509;53.108;6.100;2023-07-20T13:34:59;22.60;94.30
55642;DHT22;41509;53.108;6.100;2023-07-20T13:37:24;22.60;92.90
55642;DHT22;41509;53.108;6.100;2023-07-20T13:39:50;22.70;94.80
55642;DHT22;41509;53.108;6.100;2023-07-20T13:42:16;22.70;90.30
55642;DHT22;41509;53.108;6.100;2023-07-20T13:44:42;22.60;94.00
55642;DHT22;41509;53.108;6.100;2023-07-20T13:47:08;22.70;93.70
55642;DHT22;41509;53.108;6.100;2023-07-20T13:49:34;22.70;90.90
55642;DHT22;41509;53.108;6.100;2023-07-20T13:51:59;22.70;92.90
55642;DHT22;41509;53.108;6.100;2023-07-20T13:54:25;22.90;91.70
55642;DHT22;41509;53.108;6.100;2023-07-20T13:56:51;23.00;93.40
55642;DHT22;41509;53.108;6.100;2023-07-20T13:59:20;23.20;92.40
55642;DHT22;41509;53.108;6.100;2023-07-20T14:01:46;23.40;93.10
55642;DHT22;41509;53.108;6.100;2023-07-20T14:04:12;23.50;91.80
55642;DHT22;41509;53.108;6.100;2023-07-20T14:06:38;23.50;90.50
55642;DHT22;41509;53.108;6.100;2023-07-20T14:09:04;23.40;80.40
55642;DHT22;41509;53.108;6.100;2023-07-20T14:11:29;23.20;88.10
55642;DHT22;41509;53.108;6.100;2023-07-20T14:13:55;23.10;85.00
55642;DHT22;41509;53.108;6.100;2023-07-20T14:16:22;23.20;89.70
55642;DHT22;41509;53.108;6.100;2023-07-20T14:18:48;23.30;88.10
55642;DHT22;41509;53.108;6.100;2023-07-20T14:21:16;23.50;89.00
55642;DHT22;41509;53.108;6.100;2023-07-20T14:23:44;23.60;88.50
55642;DHT22;41509;53.108;6.100;2023-07-20T14:26:10;23.60;85.80
55642;DHT22;41509;53.108;6.100;2023-07-20T14:28:36;23.60;84.80
55642;DHT22;41509;53.108;6.100;2023-07-20T14:31:01;23.50;82.30
55642;DHT22;41509;53.108;6.100;2023-07-20T14:33:27;23.60;86.40
55642;DHT22;41509;53.108;6.100;2023-07-20T14:35:53;23.70;85.80
55642;DHT22;41509;53.108;6.100;2023-07-20T14:38:18;23.90;87.50
55642;DHT22;41509;53.108;6.100;2023-07-20T14:40:44;24.00;86.60
55642;DHT22;41509;53.108;6.100;2023-07-20T14:43:11;24.10;84.30
55642;DHT22;41509;53.108;6.100;2023-07-20T14:45:36;23.90;82.20
55642;DHT22;41509;53.108;6.100;2023-07-20T14:48:06;23.50;76.70
55642;DHT22;41509;53.108;6.100;2023-07-20T14:50:31;23.10;82.50
55642;DHT22;41509;53.108;6.100;2023-07-20T14:52:57;23.00;79.80
55642;DHT22;41509;53.108;6.100;2023-07-20T14:55:23;23.20;84.20
55642;DHT22;41509;53.108;6.100;2023-07-20T14:57:48;23.40;83.10
55642;DHT22;41509;53.108;6.100;2023-07-20T15:00:14;23.50;83.40
55642;DHT22;41509;53.108;6.100;2023-07-20T15:02:40;23.70;81.30
55642;DHT22;41509;53.108;6.100;2023-07-20T15:05:06;23.90;83.10
55642;DHT22;41509;53.108;6.100;2023-07-20T15:07:32;24.00;76.90
55642;DHT22;41509;53.108;6.100;2023-07-20T15:09:58;23.90;80.60
55642;DHT22;41509;53.108;6.100;2023-07-20T15:12:24;23.70;80.10
55642;DHT22;41509;53.108;6.100;2023-07-20T15:15:05;23.40;76.70
55642;DHT22;41509;53.108;6.100;2023-07-20T15:17:32;23.10;80.70
55642;DHT22;41509;53.108;6.100;2023-07-20T15:19:58;23.00;82.60
55642;DHT22;41509;53.108;6.100;2023-07-20T15:22:25;22.90;83.30
55642;DHT22;41509;53.108;6.100;2023-07-20T15:24:51;22.90;83.60
55642;DHT22;41509;53.108;6.100;2023-07-20T15:27:17;22.90;83.90
55642;DHT22;41509;53.108;6.100;2023-07-20T15:29:43;22.80;84.50
55642;DHT22;41509;53.108;6.100;2023-07-20T15:32:10;22.80;84.80
55642;DHT22;41509;53.108;6.100;2023-07-20T15:34:38;22.90;85.00
55642;DHT22;41509;53.108;6.100;2023-07-20T15:37:04;22.90;83.50
55642;DHT22;41509;53.108;6.100;2023-07-20T15:39:30;22.80;83.80
55642;DHT22;41509;53.108;6.100;2023-07-20T15:41:56;22.60;84.60
55642;DHT22;41509;53.108;6.100;2023-07-20T15:44:22;22.50;84.30
55642;DHT22;41509;53.108;6.100;2023-07-20T15:46:47;22.40;86.70
55642;DHT22;41509;53.108;6.100;2023-07-20T15:49:14;22.30;87.20